sensor_id;sensor_type;location;lat;lon;timestamp;P1;durP1;ratioP1;P2;durP2;ratioP2
57107;SDS011;42987;52.916;6.542;2022-10-16T00:02:01;6.03;;;2.38;;
57107;SDS011;42987;52.916;6.542;2022-10-16T00:04:27;5.22;;;2.25;;
57107;SDS011;42987;52.916;6.542;2022-10-16T00:06:53;5.18;;;2.00;;
57107;SDS011;42987;52.916;6.542;2022-10-16T00:09:18;8.82;;;2.63;;
57107;SDS011;42987;52.916;6.542;2022-10-16T00:11:44;6.20;;;2.30;;
57107;SDS011;42987;52.916;6.542;2022-10-16T00:14:11;7.75;;;2.00;;
57107;SDS011;42987;52.916;6.542;2022-10-16T00:16:39;6.88;;;2.45;;
57107;SDS011;42987;52.916;6.542;2022-10-16T00:19:05;7.53;;;2.40;;
57107;SDS011;42987;52.916;6.542;2022-10-16T00:21:31;6.43;;;2.08;;
57107;SDS011;42987;52.916;6.542;2022-10-16T00:24:07;6.68;;;2.28;;
57107;SDS011;42987;52.916;6.542;2022-10-16T00:26:34;7.72;;;2.33;;
57107;SDS011;42987;52.916;6.542;2022-10-16T00:29:01;7.15;;;2.38;;
57107;SDS011;42987;52.916;6.542;2022-10-16T00:31:28;8.20;;;2.50;;
57107;SDS011;42987;52.916;6.542;2022-10-16T00:33:54;5.90;;;1.92;;
57107;SDS011;42987;52.916;6.542;2022-10-16T00:36:21;6.78;;;1.92;;
57107;SDS011;42987;52.916;6.542;2022-10-16T00:38:50;7.15;;;2.45;;
57107;SDS011;42987;52.916;6.542;2022-10-16T00:41:20;5.57;;;2.15;;
57107;SDS011;42987;52.916;6.542;2022-10-16T00:46:27;7.63;;;2.20;;
57107;SDS011;42987;52.916;6.542;2022-10-16T00:49:02;7.35;;;2.40;;
57107;SDS011;42987;52.916;6.542;2022-10-16T00:51:43;6.55;;;2.00;;
57107;SDS011;42987;52.916;6.542;2022-10-16T00:54:19;9.27;;;2.75;;
57107;SDS011;42987;52.916;6.542;2022-10-16T00:56:52;7.15;;;2.22;;
57107;SDS011;42987;52.916;6.542;2022-10-16T00:59:20;6.53;;;1.98;;
57107;SDS011;42987;52.916;6.542;2022-10-16T01:01:56;4.82;;;2.00;;
57107;SDS011;42987;52.916;6.542;2022-10-16T01:04:24;6.82;;;2.05;;
57107;SDS011;42987;52.916;6.542;2022-10-16T01:09:42;5.15;;;1.92;;
57107;SDS011;42987;52.916;6.542;2022-10-16T01:17:51;6.65;;;2.50;;
57107;SDS011;42987;52.916;6.542;2022-10-16T01:20:21;7.07;;;2.50;;
57107;SDS011;42987;52.916;6.542;2022-10-16T01:25:53;5.28;;;2.55;;
57107;SDS011;42987;52.916;6.542;2022-10-16T01:28:47;6.05;;;2.35;;
57107;SDS011;42987;52.916;6.542;2022-10-16T01:31:22;6.35;;;2.38;;
57107;SDS011;42987;52.916;6.542;2022-10-16T01:33:53;6.53;;;2.30;;
57107;SDS011;42987;52.916;6.542;2022-10-16T01:36:48;9.77;;;2.83;;
57107;SDS011;42987;52.916;6.542;2022-10-16T01:39:22;7.32;;;2.13;;
57107;SDS011;42987;52.916;6.542;2022-10-16T01:41:59;6.03;;;2.30;;
57107;SDS011;42987;52.916;6.542;2022-10-16T01:44:33;8.85;;;2.30;;
57107;SDS011;42987;52.916;6.542;2022-10-16T01:47:01;6.25;;;1.90;;
57107;SDS011;42987;52.916;6.542;2022-10-16T01:49:30;5.95;;;2.15;;
57107;SDS011;42987;52.916;6.542;2022-10-16T01:51:59;5.28;;;1.63;;
57107;SDS011;42987;52.916;6.542;2022-10-16T01:54:27;4.50;;;2.08;;
57107;SDS011;42987;52.916;6.542;2022-10-16T01:56:56;5.85;;;2.00;;
57107;SDS011;42987;52.916;6.542;2022-10-16T01:59:23;4.65;;;1.85;;
57107;SDS011;42987;52.916;6.542;2022-10-16T02:01:58;4.80;;;1.83;;
57107;SDS011;42987;52.916;6.542;2022-10-16T02:04:30;4.40;;;1.85;;
57107;SDS011;42987;52.916;6.542;2022-10-16T02:06:59;5.65;;;2.00;;
57107;SDS011;42987;52.916;6.542;2022-10-16T02:09:25;6.50;;;2.03;;
57107;SDS011;42987;52.916;6.542;2022-10-16T02:11:55;6.25;;;2.25;;
57107;SDS011;42987;52.916;6.542;2022-10-16T02:14:23;7.47;;;2.33;;
57107;SDS011;42987;52.916;6.542;2022-10-16T02:16:49;5.20;;;2.13;;
57107;SDS011;42987;52.916;6.542;2022-10-16T02:19:16;7.47;;;2.13;;
57107;SDS011;42987;52.916;6.542;2022-10-16T02:30:00;8.13;;;2.20;;
57107;SDS011;42987;52.916;6.542;2022-10-16T02:32:38;6.10;;;2.50;;
57107;SDS011;42987;52.916;6.542;2022-10-16T02:35:07;6.80;;;2.92;;
57107;SDS011;42987;52.916;6.542;2022-10-16T02:37:34;5.35;;;2.67;;
57107;SDS011;42987;52.916;6.542;2022-10-16T02:40:00;7.60;;;2.50;;
57107;SDS011;42987;52.916;6.542;2022-10-16T02:42:28;8.43;;;2.70;;
57107;SDS011;42987;52.916;6.542;2022-10-16T02:45:01;6.95;;;2.45;;
57107;SDS011;42987;52.916;6.542;2022-10-16T02:47:27;5.33;;;3.10;;
57107;SDS011;42987;52.916;6.542;2022-10-16T02:49:53;10.20;;;2.65;;
57107;SDS011;42987;52.916;6.542;2022-10-16T02:52:19;6.20;;;2.70;;
57107;SDS011;42987;52.916;6.542;2022-10-16T02:54:45;6.68;;;2.72;;
57107;SDS011;42987;52.916;6.542;2022-10-16T02:57:10;5.43;;;3.10;;
57107;SDS011;42987;52.916;6.542;2022-10-16T02:59:37;5.38;;;2.70;;
57107;SDS011;42987;52.916;6.542;2022-10-16T03:02:02;6.15;;;2.78;;
57107;SDS011;42987;52.916;6.542;2022-10-16T03:04:28;5.68;;;3.00;;
57107;SDS011;42987;52.916;6.542;2022-10-16T03:06:54;6.97;;;2.83;;
57107;SDS011;42987;52.916;6.542;2022-10-16T03:09:20;5.60;;;2.40;;
57107;SDS011;42987;52.916;6.542;2022-10-16T03:11:46;7.55;;;2.40;;
57107;SDS011;42987;52.916;6.542;2022-10-16T03:14:12;7.80;;;2.88;;
57107;SDS011;42987;52.916;6.542;2022-10-16T03:16:37;4.78;;;2.47;;
57107;SDS011;42987;52.916;6.542;2022-10-16T03:19:03;4.72;;;2.75;;
57107;SDS011;42987;52.916;6.542;2022-10-16T03:21:29;7.10;;;2.90;;
57107;SDS011;42987;52.916;6.542;2022-10-16T03:23:55;7.32;;;2.90;;
57107;SDS011;42987;52.916;6.542;2022-10-16T03:26:20;5.55;;;2.78;;
57107;SDS011;42987;52.916;6.542;2022-10-16T03:28:46;8.38;;;2.70;;
57107;SDS011;42987;52.916;6.542;2022-10-16T03:31:12;6.57;;;2.78;;
57107;SDS011;42987;52.916;6.542;2022-10-16T03:33:38;4.35;;;2.30;;
57107;SDS011;42987;52.916;6.542;2022-10-16T03:36:03;5.72;;;2.50;;
57107;SDS011;42987;52.916;6.542;2022-10-16T03:38:29;5.10;;;2.33;;
57107;SDS011;42987;52.916;6.542;2022-10-16T03:40:55;6.57;;;2.50;;
57107;SDS011;42987;52.916;6.542;2022-10-16T03:43:21;5.55;;;2.40;;
57107;SDS011;42987;52.916;6.542;2022-10-16T03:45:46;6.10;;;2.03;;
57107;SDS011;42987;52.916;6.542;2022-10-16T03:48:12;5.70;;;2.70;;
57107;SDS011;42987;52.916;6.542;2022-10-16T03:50:38;5.82;;;2.38;;
57107;SDS011;42987;52.916;6.542;2022-10-16T03:53:04;5.13;;;2.63;;
57107;SDS011;42987;52.916;6.542;2022-10-16T03:55:30;6.28;;;2.72;;
57107;SDS011;42987;52.916;6.542;2022-10-16T03:57:55;3.58;;;2.30;;
57107;SDS011;42987;52.916;6.542;2022-10-16T04:00:21;6.60;;;2.90;;
57107;SDS011;42987;52.916;6.542;2022-10-16T04:02:47;6.10;;;2.63;;
57107;SDS011;42987;52.916;6.542;2022-10-16T04:05:13;4.55;;;2.42;;
57107;SDS011;42987;52.916;6.542;2022-10-16T04:07:39;5.22;;;2.53;;
57107;SDS011;42987;52.916;6.542;2022-10-16T04:10:05;5.75;;;2.50;;
57107;SDS011;42987;52.916;6.542;2022-10-16T04:12:31;5.43;;;3.00;;
57107;SDS011;42987;52.916;6.542;2022-10-16T04:14:57;7.32;;;3.03;;
57107;SDS011;42987;52.916;6.542;2022-10-16T04:17:23;6.00;;;3.13;;
57107;SDS011;42987;52.916;6.542;2022-10-16T04:19:48;6.60;;;3.13;;
57107;SDS011;42987;52.916;6.542;2022-10-16T04:22:14;7.18;;;2.90;;
57107;SDS011;42987;52.916;6.542;2022-10-16T04:24:40;7.38;;;3.60;;
57107;SDS011;42987;52.916;6.542;2022-10-16T04:27:06;7.85;;;3.42;;
57107;SDS011;42987;52.916;6.542;2022-10-16T04:29:31;6.57;;;3.08;;
57107;SDS011;42987;52.916;6.542;2022-10-16T04:31:57;5.95;;;3.35;;
57107;SDS011;42987;52.916;6.542;2022-10-16T04:34:23;8.57;;;3.53;;
57107;SDS011;42987;52.916;6.542;2022-10-16T04:36:48;8.85;;;3.85;;
57107;SDS011;42987;52.916;6.542;2022-10-16T04:39:15;6.03;;;3.33;;
57107;SDS011;42987;52.916;6.542;2022-10-16T04:41:41;6.15;;;3.22;;
57107;SDS011;42987;52.916;6.542;2022-10-16T04:44:06;6.45;;;3.50;;
57107;SDS011;42987;52.916;6.542;2022-10-16T04:46:33;5.50;;;3.38;;
57107;SDS011;42987;52.916;6.542;2022-10-16T04:48:58;7.78;;;3.80;;
57107;SDS011;42987;52.916;6.542;2022-10-16T04:51:24;6.72;;;3.65;;
57107;SDS011;42987;52.916;6.542;2022-10-16T04:53:51;8.68;;;3.38;;
57107;SDS011;42987;52.916;6.542;2022-10-16T04:56:17;4.78;;;3.50;;
57107;SDS011;42987;52.916;6.542;2022-10-16T04:58:43;6.85;;;3.38;;
57107;SDS011;42987;52.916;6.542;2022-10-16T05:01:08;6.45;;;3.45;;
57107;SDS011;42987;52.916;6.542;2022-10-16T05:03:34;7.22;;;3.80;;
57107;SDS011;42987;52.916;6.542;2022-10-16T05:06:00;6.40;;;3.38;;
57107;SDS011;42987;52.916;6.542;2022-10-16T05:08:25;6.88;;;3.50;;
57107;SDS011;42987;52.916;6.542;2022-10-16T05:10:51;7.78;;;3.47;;
57107;SDS011;42987;52.916;6.542;2022-10-16T05:13:17;7.93;;;4.07;;
57107;SDS011;42987;52.916;6.542;2022-10-16T05:15:46;8.20;;;3.85;;
57107;SDS011;42987;52.916;6.542;2022-10-16T05:20:39;7.65;;;4.03;;
57107;SDS011;42987;52.916;6.542;2022-10-16T05:23:04;7.95;;;4.15;;
57107;SDS011;42987;52.916;6.542;2022-10-16T05:25:30;8.63;;;3.85;;
57107;SDS011;42987;52.916;6.542;2022-10-16T05:27:56;8.18;;;4.30;;
57107;SDS011;42987;52.916;6.542;2022-10-16T05:30:22;6.43;;;3.53;;
57107;SDS011;42987;52.916;6.542;2022-10-16T05:32:48;4.82;;;3.40;;
57107;SDS011;42987;52.916;6.542;2022-10-16T05:35:15;8.60;;;4.35;;
57107;SDS011;42987;52.916;6.542;2022-10-16T05:37:44;5.65;;;4.13;;
57107;SDS011;42987;52.916;6.542;2022-10-16T05:40:10;7.30;;;4.45;;
57107;SDS011;42987;52.916;6.542;2022-10-16T05:42:36;5.90;;;4.40;;
57107;SDS011;42987;52.916;6.542;2022-10-16T05:45:03;7.15;;;4.25;;
57107;SDS011;42987;52.916;6.542;2022-10-16T05:47:34;7.20;;;4.18;;
57107;SDS011;42987;52.916;6.542;2022-10-16T05:49:59;7.40;;;4.07;;
57107;SDS011;42987;52.916;6.542;2022-10-16T05:52:26;7.63;;;4.35;;
57107;SDS011;42987;52.916;6.542;2022-10-16T05:54:52;9.80;;;4.72;;
57107;SDS011;42987;52.916;6.542;2022-10-16T05:57:18;6.85;;;3.90;;
57107;SDS011;42987;52.916;6.542;2022-10-16T05:59:43;6.88;;;4.13;;
57107;SDS011;42987;52.916;6.542;2022-10-16T06:02:11;7.88;;;4.25;;
57107;SDS011;42987;52.916;6.542;2022-10-16T06:04:38;8.88;;;4.22;;
57107;SDS011;42987;52.916;6.542;2022-10-16T06:07:04;6.15;;;4.10;;
57107;SDS011;42987;52.916;6.542;2022-10-16T06:09:30;6.90;;;4.85;;
57107;SDS011;42987;52.916;6.542;2022-10-16T06:11:56;6.68;;;3.95;;
57107;SDS011;42987;52.916;6.542;2022-10-16T06:14:21;6.40;;;4.30;;
57107;SDS011;42987;52.916;6.542;2022-10-16T06:16:47;8.10;;;4.18;;
57107;SDS011;42987;52.916;6.542;2022-10-16T06:19:13;6.07;;;3.92;;
57107;SDS011;42987;52.916;6.542;2022-10-16T06:21:39;7.07;;;3.88;;
57107;SDS011;42987;52.916;6.542;2022-10-16T06:24:05;6.32;;;3.95;;
57107;SDS011;42987;52.916;6.542;2022-10-16T06:26:31;6.15;;;4.10;;
57107;SDS011;42987;52.916;6.542;2022-10-16T06:28:57;8.05;;;4.15;;
57107;SDS011;42987;52.916;6.542;2022-10-16T06:31:24;6.93;;;4.10;;
57107;SDS011;42987;52.916;6.542;2022-10-16T06:33:52;8.82;;;3.72;;
57107;SDS011;42987;52.916;6.542;2022-10-16T06:36:19;5.97;;;3.50;;
57107;SDS011;42987;52.916;6.542;2022-10-16T06:38:45;8.82;;;4.78;;
57107;SDS011;42987;52.916;6.542;2022-10-16T06:41:12;6.63;;;3.50;;
57107;SDS011;42987;52.916;6.542;2022-10-16T06:43:40;7.07;;;3.42;;
57107;SDS011;42987;52.916;6.542;2022-10-16T06:46:06;6.40;;;3.30;;
57107;SDS011;42987;52.916;6.542;2022-10-16T06:48:34;5.97;;;3.20;;
57107;SDS011;42987;52.916;6.542;2022-10-16T06:51:08;7.32;;;3.50;;
57107;SDS011;42987;52.916;6.542;2022-10-16T06:53:35;7.05;;;3.20;;
57107;SDS011;42987;52.916;6.542;2022-10-16T06:56:09;5.78;;;3.40;;
57107;SDS011;42987;52.916;6.542;2022-10-16T06:58:36;7.47;;;3.60;;
57107;SDS011;42987;52.916;6.542;2022-10-16T07:01:03;4.70;;;2.80;;
57107;SDS011;42987;52.916;6.542;2022-10-16T07:03:29;7.43;;;3.50;;
57107;SDS011;42987;52.916;6.542;2022-10-16T07:05:55;7.72;;;2.97;;
57107;SDS011;42987;52.916;6.542;2022-10-16T07:08:21;5.25;;;2.90;;
57107;SDS011;42987;52.916;6.542;2022-10-16T07:10:47;5.28;;;2.83;;
57107;SDS011;42987;52.916;6.542;2022-10-16T07:13:13;5.07;;;2.70;;
57107;SDS011;42987;52.916;6.542;2022-10-16T07:15:39;6.72;;;3.22;;
57107;SDS011;42987;52.916;6.542;2022-10-16T07:18:06;6.50;;;3.13;;
57107;SDS011;42987;52.916;6.542;2022-10-16T07:20:32;5.95;;;2.72;;
57107;SDS011;42987;52.916;6.542;2022-10-16T07:22:57;5.22;;;2.50;;
57107;SDS011;42987;52.916;6.542;2022-10-16T07:25:24;6.55;;;3.00;;
57107;SDS011;42987;52.916;6.542;2022-10-16T07:27:49;5.10;;;2.75;;
57107;SDS011;42987;52.916;6.542;2022-10-16T07:30:15;7.25;;;3.13;;
57107;SDS011;42987;52.916;6.542;2022-10-16T07:32:41;7.75;;;3.05;;
57107;SDS011;42987;52.916;6.542;2022-10-16T07:35:07;5.68;;;2.35;;
57107;SDS011;42987;52.916;6.542;2022-10-16T07:37:33;7.55;;;2.80;;
57107;SDS011;42987;52.916;6.542;2022-10-16T07:39:58;5.40;;;2.92;;
57107;SDS011;42987;52.916;6.542;2022-10-16T07:42:24;5.15;;;2.60;;
57107;SDS011;42987;52.916;6.542;2022-10-16T07:44:50;8.10;;;3.28;;
57107;SDS011;42987;52.916;6.542;2022-10-16T07:47:16;6.53;;;2.83;;
57107;SDS011;42987;52.916;6.542;2022-10-16T07:49:41;5.90;;;2.47;;
57107;SDS011;42987;52.916;6.542;2022-10-16T07:52:07;4.15;;;2.45;;
57107;SDS011;42987;52.916;6.542;2022-10-16T07:54:33;5.78;;;2.20;;
57107;SDS011;42987;52.916;6.542;2022-10-16T07:56:59;6.38;;;2.60;;
57107;SDS011;42987;52.916;6.542;2022-10-16T07:59:24;5.40;;;2.10;;
57107;SDS011;42987;52.916;6.542;2022-10-16T08:01:50;5.28;;;2.15;;
57107;SDS011;42987;52.916;6.542;2022-10-16T08:04:16;4.03;;;1.85;;
57107;SDS011;42987;52.916;6.542;2022-10-16T08:06:42;5.20;;;2.08;;
57107;SDS011;42987;52.916;6.542;2022-10-16T08:09:08;8.23;;;2.10;;
57107;SDS011;42987;52.916;6.542;2022-10-16T08:11:34;5.13;;;1.60;;
57107;SDS011;42987;52.916;6.542;2022-10-16T08:14:00;5.60;;;1.63;;
57107;SDS011;42987;52.916;6.542;2022-10-16T08:16:31;5.40;;;1.63;;
57107;SDS011;42987;52.916;6.542;2022-10-16T08:18:57;6.80;;;1.85;;
57107;SDS011;42987;52.916;6.542;2022-10-16T08:21:22;6.78;;;1.50;;
57107;SDS011;42987;52.916;6.542;2022-10-16T08:23:49;5.75;;;1.40;;
57107;SDS011;42987;52.916;6.542;2022-10-16T08:26:15;4.18;;;1.50;;
57107;SDS011;42987;52.916;6.542;2022-10-16T08:28:41;5.80;;;1.60;;
57107;SDS011;42987;52.916;6.542;2022-10-16T08:31:07;7.03;;;1.65;;
57107;SDS011;42987;52.916;6.542;2022-10-16T08:33:38;4.32;;;1.30;;
57107;SDS011;42987;52.916;6.542;2022-10-16T08:36:05;4.00;;;1.13;;
57107;SDS011;42987;52.916;6.542;2022-10-16T08:38:32;3.80;;;1.38;;
57107;SDS011;42987;52.916;6.542;2022-10-16T08:49:20;5.35;;;1.60;;
57107;SDS011;42987;52.916;6.542;2022-10-16T08:51:49;6.22;;;2.10;;
57107;SDS011;42987;52.916;6.542;2022-10-16T08:56:44;5.55;;;1.88;;
57107;SDS011;42987;52.916;6.542;2022-10-16T08:59:10;4.72;;;1.83;;
57107;SDS011;42987;52.916;6.542;2022-10-16T09:01:40;5.68;;;1.88;;
57107;SDS011;42987;52.916;6.542;2022-10-16T09:12:31;6.97;;;2.25;;
57107;SDS011;42987;52.916;6.542;2022-10-16T09:18:12;5.80;;;2.17;;
57107;SDS011;42987;52.916;6.542;2022-10-16T09:20:50;7.25;;;2.20;;
57107;SDS011;42987;52.916;6.542;2022-10-16T09:23:37;8.60;;;2.20;;
57107;SDS011;42987;52.916;6.542;2022-10-16T09:26:03;9.13;;;2.42;;
57107;SDS011;42987;52.916;6.542;2022-10-16T09:28:30;6.57;;;2.20;;
57107;SDS011;42987;52.916;6.542;2022-10-16T09:30:56;9.00;;;2.05;;
57107;SDS011;42987;52.916;6.542;2022-10-16T09:33:24;11.45;;;2.35;;
57107;SDS011;42987;52.916;6.542;2022-10-16T09:35:54;9.23;;;2.05;;
57107;SDS011;42987;52.916;6.542;2022-10-16T09:38:28;16.10;;;2.70;;
57107;SDS011;42987;52.916;6.542;2022-10-16T09:40:56;8.80;;;1.98;;
57107;SDS011;42987;52.916;6.542;2022-10-16T09:43:24;10.20;;;2.30;;
57107;SDS011;42987;52.916;6.542;2022-10-16T09:46:07;8.70;;;2.00;;
57107;SDS011;42987;52.916;6.542;2022-10-16T09:51:01;7.68;;;1.80;;
57107;SDS011;42987;52.916;6.542;2022-10-16T09:53:39;10.20;;;1.90;;
57107;SDS011;42987;52.916;6.542;2022-10-16T09:56:10;8.80;;;2.20;;
57107;SDS011;42987;52.916;6.542;2022-10-16T09:58:49;13.40;;;2.53;;
57107;SDS011;42987;52.916;6.542;2022-10-16T10:01:17;6.80;;;1.88;;
57107;SDS011;42987;52.916;6.542;2022-10-16T10:03:45;7.57;;;2.40;;
57107;SDS011;42987;52.916;6.542;2022-10-16T10:06:18;9.68;;;1.90;;
57107;SDS011;42987;52.916;6.542;2022-10-16T10:11:40;8.23;;;2.05;;
57107;SDS011;42987;52.916;6.542;2022-10-16T10:14:13;10.10;;;2.22;;
57107;SDS011;42987;52.916;6.542;2022-10-16T10:16:49;7.95;;;1.67;;
57107;SDS011;42987;52.916;6.542;2022-10-16T10:19:17;8.40;;;2.08;;
57107;SDS011;42987;52.916;6.542;2022-10-16T10:21:47;11.50;;;1.92;;
57107;SDS011;42987;52.916;6.542;2022-10-16T10:24:15;11.43;;;2.15;;
57107;SDS011;42987;52.916;6.542;2022-10-16T10:26:44;9.68;;;2.30;;
57107;SDS011;42987;52.916;6.542;2022-10-16T10:37:53;11.35;;;2.33;;
57107;SDS011;42987;52.916;6.542;2022-10-16T10:40:33;9.90;;;2.23;;
57107;SDS011;42987;52.916;6.542;2022-10-16T10:43:19;8.90;;;2.00;;
57107;SDS011;42987;52.916;6.542;2022-10-16T10:46:41;11.65;;;2.90;;
57107;SDS011;42987;52.916;6.542;2022-10-16T10:54:37;10.00;;;2.00;;
57107;SDS011;42987;52.916;6.542;2022-10-16T10:59:59;11.30;;;2.20;;
57107;SDS011;42987;52.916;6.542;2022-10-16T11:02:38;11.75;;;2.88;;
57107;SDS011;42987;52.916;6.542;2022-10-16T11:08:00;10.95;;;2.28;;
57107;SDS011;42987;52.916;6.542;2022-10-16T11:10:30;11.77;;;2.47;;
57107;SDS011;42987;52.916;6.542;2022-10-16T11:13:38;8.82;;;2.00;;
57107;SDS011;42987;52.916;6.542;2022-10-16T11:16:15;10.90;;;2.55;;
57107;SDS011;42987;52.916;6.542;2022-10-16T11:19:31;9.70;;;2.30;;
57107;SDS011;42987;52.916;6.542;2022-10-16T11:22:01;8.30;;;1.92;;
57107;SDS011;42987;52.916;6.542;2022-10-16T11:24:53;9.43;;;2.35;;
57107;SDS011;42987;52.916;6.542;2022-10-16T11:27:20;12.32;;;2.70;;
57107;SDS011;42987;52.916;6.542;2022-10-16T11:30:00;13.32;;;2.70;;
57107;SDS011;42987;52.916;6.542;2022-10-16T11:32:30;10.88;;;2.58;;
57107;SDS011;42987;52.916;6.542;2022-10-16T11:35:02;9.60;;;2.08;;
57107;SDS011;42987;52.916;6.542;2022-10-16T11:37:38;8.25;;;2.10;;
57107;SDS011;42987;52.916;6.542;2022-10-16T11:40:28;9.88;;;2.10;;
57107;SDS011;42987;52.916;6.542;2022-10-16T11:43:01;10.73;;;2.08;;
57107;SDS011;42987;52.916;6.542;2022-10-16T11:45:42;11.68;;;2.40;;
57107;SDS011;42987;52.916;6.542;2022-10-16T11:50:56;9.48;;;1.98;;
57107;SDS011;42987;52.916;6.542;2022-10-16T11:56:19;9.82;;;2.22;;
57107;SDS011;42987;52.916;6.542;2022-10-16T12:01:29;11.00;;;2.13;;
57107;SDS011;42987;52.916;6.542;2022-10-16T12:04:26;11.20;;;2.47;;
57107;SDS011;42987;52.916;6.542;2022-10-16T12:09:28;10.57;;;2.40;;
57107;SDS011;42987;52.916;6.542;2022-10-16T12:11:56;11.18;;;1.95;;
57107;SDS011;42987;52.916;6.542;2022-10-16T12:17:04;13.40;;;2.13;;
57107;SDS011;42987;52.916;6.542;2022-10-16T12:22:40;9.73;;;2.25;;
57107;SDS011;42987;52.916;6.542;2022-10-16T12:27:55;10.48;;;2.13;;
57107;SDS011;42987;52.916;6.542;2022-10-16T12:30:23;11.15;;;2.25;;
57107;SDS011;42987;52.916;6.542;2022-10-16T12:32:55;12.98;;;2.10;;
57107;SDS011;42987;52.916;6.542;2022-10-16T12:35:27;10.27;;;2.25;;
57107;SDS011;42987;52.916;6.542;2022-10-16T12:41:04;10.30;;;2.10;;
57107;SDS011;42987;52.916;6.542;2022-10-16T12:43:40;8.80;;;1.92;;
57107;SDS011;42987;52.916;6.542;2022-10-16T12:48:33;9.98;;;2.15;;
57107;SDS011;42987;52.916;6.542;2022-10-16T13:02:18;8.18;;;1.92;;
57107;SDS011;42987;52.916;6.542;2022-10-16T13:05:24;7.97;;;1.45;;
57107;SDS011;42987;52.916;6.542;2022-10-16T13:22:41;11.32;;;2.00;;
57107;SDS011;42987;52.916;6.542;2022-10-16T13:30:31;13.32;;;2.20;;
57107;SDS011;42987;52.916;6.542;2022-10-16T13:33:02;11.35;;;2.38;;
57107;SDS011;42987;52.916;6.542;2022-10-16T13:35:34;13.15;;;2.72;;
57107;SDS011;42987;52.916;6.542;2022-10-16T13:38:05;11.27;;;2.33;;
57107;SDS011;42987;52.916;6.542;2022-10-16T13:43:44;13.90;;;2.35;;
57107;SDS011;42987;52.916;6.542;2022-10-16T13:46:20;9.65;;;1.85;;
57107;SDS011;42987;52.916;6.542;2022-10-16T13:48:57;9.32;;;2.03;;
57107;SDS011;42987;52.916;6.542;2022-10-16T13:51:24;9.20;;;1.90;;
57107;SDS011;42987;52.916;6.542;2022-10-16T13:53:51;9.90;;;2.20;;
57107;SDS011;42987;52.916;6.542;2022-10-16T13:56:18;10.63;;;1.90;;
57107;SDS011;42987;52.916;6.542;2022-10-16T13:58:46;9.73;;;2.13;;
57107;SDS011;42987;52.916;6.542;2022-10-16T14:01:29;10.23;;;2.20;;
57107;SDS011;42987;52.916;6.542;2022-10-16T14:04:00;13.63;;;2.65;;
57107;SDS011;42987;52.916;6.542;2022-10-16T14:06:34;10.00;;;1.83;;
57107;SDS011;42987;52.916;6.542;2022-10-16T14:09:12;10.48;;;2.42;;
57107;SDS011;42987;52.916;6.542;2022-10-16T14:11:46;12.50;;;2.30;;
57107;SDS011;42987;52.916;6.542;2022-10-16T14:14:16;11.10;;;1.92;;
57107;SDS011;42987;52.916;6.542;2022-10-16T14:16:43;10.90;;;2.28;;
57107;SDS011;42987;52.916;6.542;2022-10-16T14:19:27;10.93;;;2.60;;
57107;SDS011;42987;52.916;6.542;2022-10-16T14:21:54;13.20;;;2.50;;
57107;SDS011;42987;52.916;6.542;2022-10-16T14:24:42;11.45;;;1.90;;
57107;SDS011;42987;52.916;6.542;2022-10-16T14:30:15;11.73;;;2.13;;
57107;SDS011;42987;52.916;6.542;2022-10-16T14:33:00;11.30;;;2.70;;
57107;SDS011;42987;52.916;6.542;2022-10-16T14:35:35;7.25;;;1.75;;
57107;SDS011;42987;52.916;6.542;2022-10-16T14:38:03;15.07;;;2.70;;
57107;SDS011;42987;52.916;6.542;2022-10-16T14:40:31;8.93;;;2.10;;
57107;SDS011;42987;52.916;6.542;2022-10-16T14:42:58;9.02;;;1.83;;
57107;SDS011;42987;52.916;6.542;2022-10-16T14:45:29;10.70;;;1.90;;
57107;SDS011;42987;52.916;6.542;2022-10-16T14:47:58;10.77;;;2.00;;
57107;SDS011;42987;52.916;6.542;2022-10-16T14:50:27;9.75;;;2.25;;
57107;SDS011;42987;52.916;6.542;2022-10-16T14:52:56;8.32;;;2.00;;
57107;SDS011;42987;52.916;6.542;2022-10-16T14:55:24;12.05;;;2.95;;
57107;SDS011;42987;52.916;6.542;2022-10-16T14:57:50;9.85;;;2.22;;
57107;SDS011;42987;52.916;6.542;2022-10-16T15:00:20;12.00;;;2.33;;
57107;SDS011;42987;52.916;6.542;2022-10-16T15:02:48;11.43;;;2.33;;
57107;SDS011;42987;52.916;6.542;2022-10-16T15:07:40;11.75;;;1.98;;
57107;SDS011;42987;52.916;6.542;2022-10-16T15:10:07;11.88;;;2.53;;
57107;SDS011;42987;52.916;6.542;2022-10-16T15:12:33;13.05;;;2.53;;
57107;SDS011;42987;52.916;6.542;2022-10-16T15:14:58;8.25;;;1.95;;
57107;SDS011;42987;52.916;6.542;2022-10-16T15:17:24;10.88;;;2.33;;
57107;SDS011;42987;52.916;6.542;2022-10-16T15:19:50;11.60;;;2.25;;
57107;SDS011;42987;52.916;6.542;2022-10-16T15:22:16;11.35;;;2.42;;
57107;SDS011;42987;52.916;6.542;2022-10-16T15:24:42;11.13;;;2.03;;
57107;SDS011;42987;52.916;6.542;2022-10-16T15:27:08;14.88;;;2.92;;
57107;SDS011;42987;52.916;6.542;2022-10-16T15:29:34;12.55;;;2.33;;
57107;SDS011;42987;52.916;6.542;2022-10-16T15:32:00;12.43;;;2.53;;
57107;SDS011;42987;52.916;6.542;2022-10-16T15:34:26;11.15;;;2.35;;
57107;SDS011;42987;52.916;6.542;2022-10-16T15:36:51;12.18;;;2.72;;
57107;SDS011;42987;52.916;6.542;2022-10-16T15:39:18;15.38;;;2.70;;
57107;SDS011;42987;52.916;6.542;2022-10-16T15:41:45;9.85;;;2.47;;
57107;SDS011;42987;52.916;6.542;2022-10-16T15:44:16;11.43;;;2.30;;
57107;SDS011;42987;52.916;6.542;2022-10-16T15:46:42;10.32;;;2.25;;
57107;SDS011;42987;52.916;6.542;2022-10-16T15:49:08;13.20;;;3.08;;
57107;SDS011;42987;52.916;6.542;2022-10-16T15:51:37;11.20;;;2.50;;
57107;SDS011;42987;52.916;6.542;2022-10-16T15:54:04;11.82;;;2.53;;
57107;SDS011;42987;52.916;6.542;2022-10-16T15:56:30;13.57;;;4.13;;
57107;SDS011;42987;52.916;6.542;2022-10-16T15:58:58;15.23;;;5.25;;
57107;SDS011;42987;52.916;6.542;2022-10-16T16:01:25;12.10;;;5.68;;
57107;SDS011;42987;52.916;6.542;2022-10-16T16:03:54;15.85;;;6.28;;
57107;SDS011;42987;52.916;6.542;2022-10-16T16:06:21;12.75;;;4.93;;
57107;SDS011;42987;52.916;6.542;2022-10-16T16:08:50;17.53;;;6.50;;
57107;SDS011;42987;52.916;6.542;2022-10-16T16:11:17;16.60;;;7.53;;
57107;SDS011;42987;52.916;6.542;2022-10-16T16:13:43;19.73;;;9.05;;
57107;SDS011;42987;52.916;6.542;2022-10-16T16:16:13;16.27;;;7.18;;
57107;SDS011;42987;52.916;6.542;2022-10-16T16:18:41;12.40;;;4.20;;
57107;SDS011;42987;52.916;6.542;2022-10-16T16:21:08;14.43;;;3.15;;
57107;SDS011;42987;52.916;6.542;2022-10-16T16:23:36;11.32;;;2.50;;
57107;SDS011;42987;52.916;6.542;2022-10-16T16:28:36;10.18;;;3.10;;
57107;SDS011;42987;52.916;6.542;2022-10-16T16:31:03;12.65;;;2.47;;
57107;SDS011;42987;52.916;6.542;2022-10-16T16:33:30;14.23;;;2.30;;
57107;SDS011;42987;52.916;6.542;2022-10-16T16:36:00;14.52;;;2.67;;
57107;SDS011;42987;52.916;6.542;2022-10-16T16:38:27;10.98;;;2.35;;
57107;SDS011;42987;52.916;6.542;2022-10-16T16:40:54;10.70;;;2.60;;
57107;SDS011;42987;52.916;6.542;2022-10-16T16:43:29;8.80;;;2.42;;
57107;SDS011;42987;52.916;6.542;2022-10-16T16:45:55;12.07;;;3.03;;
57107;SDS011;42987;52.916;6.542;2022-10-16T16:48:26;15.25;;;2.85;;
57107;SDS011;42987;52.916;6.542;2022-10-16T16:50:52;14.70;;;2.50;;
57107;SDS011;42987;52.916;6.542;2022-10-16T16:53:17;14.60;;;2.53;;
57107;SDS011;42987;52.916;6.542;2022-10-16T16:55:43;14.80;;;2.78;;
57107;SDS011;42987;52.916;6.542;2022-10-16T16:58:09;17.10;;;3.78;;
57107;SDS011;42987;52.916;6.542;2022-10-16T17:00:34;12.45;;;2.45;;
57107;SDS011;42987;52.916;6.542;2022-10-16T17:03:00;15.13;;;3.10;;
57107;SDS011;42987;52.916;6.542;2022-10-16T17:05:26;14.52;;;2.90;;
57107;SDS011;42987;52.916;6.542;2022-10-16T17:07:52;10.80;;;2.38;;
57107;SDS011;42987;52.916;6.542;2022-10-16T17:10:17;14.70;;;3.28;;
57107;SDS011;42987;52.916;6.542;2022-10-16T17:12:43;15.82;;;2.78;;
57107;SDS011;42987;52.916;6.542;2022-10-16T17:15:09;11.98;;;2.40;;